sensor_id;sensor_type;location;lat;lon;timestamp;P1;durP1;ratioP1;P2;durP2;ratioP2
16385;SDS011;8302;51.154;4.456;2023-07-24T00:00:36;0.55;;;0.50;;
16385;SDS011;8302;51.154;4.456;2023-07-24T00:03:06;0.60;;;0.60;;
16385;SDS011;8302;51.154;4.456;2023-07-24T00:05:34;0.70;;;0.35;;
16385;SDS011;8302;51.154;4.456;2023-07-24T00:08:03;0.35;;;0.35;;
16385;SDS011;8302;51.154;4.456;2023-07-24T00:10:31;0.47;;;0.40;;
16385;SDS011;8302;51.154;4.456;2023-07-24T00:12:58;0.50;;;0.50;;
16385;SDS011;8302;51.154;4.456;2023-07-24T00:15:26;0.20;;;0.20;;
16385;SDS011;8302;51.154;4.456;2023-07-24T00:17:54;0.40;;;0.40;;
16385;SDS011;8302;51.154;4.456;2023-07-24T00:20:22;0.40;;;0.30;;
16385;SDS011;8302;51.154;4.456;2023-07-24T00:22:50;0.82;;;0.60;;
16385;SDS011;8302;51.154;4.456;2023-07-24T00:25:19;1.35;;;0.30;;
16385;SDS011;8302;51.154;4.456;2023-07-24T00:27:47;0.63;;;0.38;;
16385;SDS011;8302;51.154;4.456;2023-07-24T00:30:15;0.50;;;0.50;;
16385;SDS011;8302;51.154;4.456;2023-07-24T00:32:42;0.57;;;0.57;;
16385;SDS011;8302;51.154;4.456;2023-07-24T00:35:11;0.85;;;0.55;;
16385;SDS011;8302;51.154;4.456;2023-07-24T00:37:39;1.48;;;0.50;;
16385;SDS011;8302;51.154;4.456;2023-07-24T00:40:07;2.58;;;0.88;;
16385;SDS011;8302;51.154;4.456;2023-07-24T00:42:36;1.10;;;0.47;;
16385;SDS011;8302;51.154;4.456;2023-07-24T00:45:04;0.40;;;0.40;;
16385;SDS011;8302;51.154;4.456;2023-07-24T00:47:32;0.50;;;0.50;;
16385;SDS011;8302;51.154;4.456;2023-07-24T00:50:00;0.50;;;0.22;;
16385;SDS011;8302;51.154;4.456;2023-07-24T00:52:28;0.98;;;0.40;;
16385;SDS011;8302;51.154;4.456;2023-07-24T00:54:55;0.45;;;0.40;;
16385;SDS011;8302;51.154;4.456;2023-07-24T00:57:23;1.13;;;0.50;;
16385;SDS011;8302;51.154;4.456;2023-07-24T00:59:52;0.55;;;0.35;;
16385;SDS011;8302;51.154;4.456;2023-07-24T01:02:20;1.27;;;0.60;;
16385;SDS011;8302;51.154;4.456;2023-07-24T01:04:48;0.40;;;0.40;;
16385;SDS011;8302;51.154;4.456;2023-07-24T01:07:16;1.90;;;0.30;;
16385;SDS011;8302;51.154;4.456;2023-07-24T01:09:44;0.45;;;0.45;;
16385;SDS011;8302;51.154;4.456;2023-07-24T01:12:15;0.70;;;0.70;;
16385;SDS011;8302;51.154;4.456;2023-07-24T01:14:46;0.68;;;0.52;;
16385;SDS011;8302;51.154;4.456;2023-07-24T01:17:16;0.70;;;0.57;;
16385;SDS011;8302;51.154;4.456;2023-07-24T01:19:46;0.22;;;0.22;;
16385;SDS011;8302;51.154;4.456;2023-07-24T01:22:18;1.42;;;0.70;;
16385;SDS011;8302;51.154;4.456;2023-07-24T01:25:00;0.30;;;0.30;;
16385;SDS011;8302;51.154;4.456;2023-07-24T01:27:29;0.35;;;0.32;;
16385;SDS011;8302;51.154;4.456;2023-07-24T01:29:57;0.50;;;0.30;;
16385;SDS011;8302;51.154;4.456;2023-07-24T01:32:25;0.30;;;0.30;;
16385;SDS011;8302;51.154;4.456;2023-07-24T01:34:52;0.57;;;0.40;;
16385;SDS011;8302;51.154;4.456;2023-07-24T01:37:20;1.00;;;0.43;;
16385;SDS011;8302;51.154;4.456;2023-07-24T01:39:48;0.40;;;0.40;;
16385;SDS011;8302;51.154;4.456;2023-07-24T01:42:17;0.40;;;0.40;;
16385;SDS011;8302;51.154;4.456;2023-07-24T01:44:46;1.90;;;0.75;;
16385;SDS011;8302;51.154;4.456;2023-07-24T01:47:18;0.40;;;0.40;;
16385;SDS011;8302;51.154;4.456;2023-07-24T01:49:45;0.30;;;0.30;;
16385;SDS011;8302;51.154;4.456;2023-07-24T01:52:13;0.52;;;0.50;;
16385;SDS011;8302;51.154;4.456;2023-07-24T01:54:41;0.57;;;0.47;;
16385;SDS011;8302;51.154;4.456;2023-07-24T01:57:08;0.63;;;0.57;;
16385;SDS011;8302;51.154;4.456;2023-07-24T01:59:36;0.52;;;0.50;;
16385;SDS011;8302;51.154;4.456;2023-07-24T02:02:05;0.35;;;0.35;;
16385;SDS011;8302;51.154;4.456;2023-07-24T02:04:33;0.38;;;0.38;;
16385;SDS011;8302;51.154;4.456;2023-07-24T02:07:02;0.80;;;0.43;;
16385;SDS011;8302;51.154;4.456;2023-07-24T02:09:30;0.30;;;0.30;;
16385;SDS011;8302;51.154;4.456;2023-07-24T02:11:58;0.52;;;0.25;;
16385;SDS011;8302;51.154;4.456;2023-07-24T02:14:26;0.20;;;0.20;;
16385;SDS011;8302;51.154;4.456;2023-07-24T02:16:54;1.75;;;0.57;;
16385;SDS011;8302;51.154;4.456;2023-07-24T02:19:23;0.65;;;0.50;;
16385;SDS011;8302;51.154;4.456;2023-07-24T02:21:51;0.40;;;0.30;;
16385;SDS011;8302;51.154;4.456;2023-07-24T02:24:19;0.38;;;0.38;;
16385;SDS011;8302;51.154;4.456;2023-07-24T02:26:46;1.30;;;0.60;;
16385;SDS011;8302;51.154;4.456;2023-07-24T02:29:14;0.75;;;0.55;;
16385;SDS011;8302;51.154;4.456;2023-07-24T02:31:42;0.57;;;0.43;;
16385;SDS011;8302;51.154;4.456;2023-07-24T02:34:10;0.30;;;0.30;;
16385;SDS011;8302;51.154;4.456;2023-07-24T02:36:41;0.70;;;0.47;;
16385;SDS011;8302;51.154;4.456;2023-07-24T02:39:08;0.35;;;0.35;;
16385;SDS011;8302;51.154;4.456;2023-07-24T02:41:36;1.23;;;0.55;;
16385;SDS011;8302;51.154;4.456;2023-07-24T02:44:04;1.05;;;0.30;;
16385;SDS011;8302;51.154;4.456;2023-07-24T02:46:33;0.20;;;0.20;;
16385;SDS011;8302;51.154;4.456;2023-07-24T02:49:01;0.90;;;0.40;;
16385;SDS011;8302;51.154;4.456;2023-07-24T02:51:28;0.38;;;0.38;;
16385;SDS011;8302;51.154;4.456;2023-07-24T02:53:57;0.70;;;0.38;;
16385;SDS011;8302;51.154;4.456;2023-07-24T02:56:25;0.47;;;0.30;;
16385;SDS011;8302;51.154;4.456;2023-07-24T02:58:53;0.20;;;0.20;;
16385;SDS011;8302;51.154;4.456;2023-07-24T03:01:21;0.40;;;0.40;;
16385;SDS011;8302;51.154;4.456;2023-07-24T03:03:49;0.10;;;0.10;;
16385;SDS011;8302;51.154;4.456;2023-07-24T03:06:16;0.52;;;0.52;;
16385;SDS011;8302;51.154;4.456;2023-07-24T03:08:44;0.45;;;0.38;;
16385;SDS011;8302;51.154;4.456;2023-07-24T03:11:13;2.80;;;0.30;;
16385;SDS011;8302;51.154;4.456;2023-07-24T03:13:41;0.30;;;0.30;;
16385;SDS011;8302;51.154;4.456;2023-07-24T03:16:09;0.60;;;0.40;;
16385;SDS011;8302;51.154;4.456;2023-07-24T03:18:37;0.38;;;0.28;;
16385;SDS011;8302;51.154;4.456;2023-07-24T03:21:04;0.30;;;0.30;;
16385;SDS011;8302;51.154;4.456;2023-07-24T03:23:32;1.13;;;0.70;;
16385;SDS011;8302;51.154;4.456;2023-07-24T03:26:00;2.42;;;0.70;;
16385;SDS011;8302;51.154;4.456;2023-07-24T03:28:29;0.50;;;0.50;;
16385;SDS011;8302;51.154;4.456;2023-07-24T03:30:57;1.08;;;0.40;;
16385;SDS011;8302;51.154;4.456;2023-07-24T03:33:25;1.05;;;0.40;;
16385;SDS011;8302;51.154;4.456;2023-07-24T03:35:52;0.98;;;0.70;;
16385;SDS011;8302;51.154;4.456;2023-07-24T03:38:20;2.45;;;0.55;;
16385;SDS011;8302;51.154;4.456;2023-07-24T03:40:49;0.47;;;0.47;;
16385;SDS011;8302;51.154;4.456;2023-07-24T03:43:17;0.65;;;0.63;;
16385;SDS011;8302;51.154;4.456;2023-07-24T03:45:46;1.27;;;0.60;;
16385;SDS011;8302;51.154;4.456;2023-07-24T03:48:14;0.88;;;0.52;;
16385;SDS011;8302;51.154;4.456;2023-07-24T03:50:42;0.52;;;0.47;;
16385;SDS011;8302;51.154;4.456;2023-07-24T03:53:09;0.47;;;0.30;;
16385;SDS011;8302;51.154;4.456;2023-07-24T03:55:37;0.77;;;0.60;;
16385;SDS011;8302;51.154;4.456;2023-07-24T03:58:05;1.60;;;0.47;;
16385;SDS011;8302;51.154;4.456;2023-07-24T04:00:32;0.68;;;0.52;;
16385;SDS011;8302;51.154;4.456;2023-07-24T04:03:01;0.45;;;0.30;;
16385;SDS011;8302;51.154;4.456;2023-07-24T04:05:29;0.20;;;0.20;;
16385;SDS011;8302;51.154;4.456;2023-07-24T04:07:57;0.40;;;0.40;;
16385;SDS011;8302;51.154;4.456;2023-07-24T04:10:24;0.45;;;0.28;;
16385;SDS011;8302;51.154;4.456;2023-07-24T04:12:52;0.20;;;0.20;;
16385;SDS011;8302;51.154;4.456;2023-07-24T04:15:20;0.65;;;0.65;;
16385;SDS011;8302;51.154;4.456;2023-07-24T04:17:47;0.60;;;0.40;;
16385;SDS011;8302;51.154;4.456;2023-07-24T04:20:17;0.20;;;0.20;;
16385;SDS011;8302;51.154;4.456;2023-07-24T04:22:44;0.38;;;0.28;;
16385;SDS011;8302;51.154;4.456;2023-07-24T04:25:12;0.55;;;0.40;;
16385;SDS011;8302;51.154;4.456;2023-07-24T04:27:40;0.30;;;0.20;;
16385;SDS011;8302;51.154;4.456;2023-07-24T04:30:07;1.23;;;0.20;;
16385;SDS011;8302;51.154;4.456;2023-07-24T04:32:35;0.52;;;0.50;;
16385;SDS011;8302;51.154;4.456;2023-07-24T04:35:03;0.75;;;0.63;;
16385;SDS011;8302;51.154;4.456;2023-07-24T04:37:32;0.20;;;0.20;;
16385;SDS011;8302;51.154;4.456;2023-07-24T04:40:00;0.30;;;0.30;;
16385;SDS011;8302;51.154;4.456;2023-07-24T04:42:28;0.88;;;0.70;;
16385;SDS011;8302;51.154;4.456;2023-07-24T04:44:55;0.93;;;0.40;;
16385;SDS011;8302;51.154;4.456;2023-07-24T04:47:23;1.63;;;1.13;;
16385;SDS011;8302;51.154;4.456;2023-07-24T04:49:51;0.47;;;0.32;;
16385;SDS011;8302;51.154;4.456;2023-07-24T04:52:18;3.15;;;1.60;;
16385;SDS011;8302;51.154;4.456;2023-07-24T04:54:47;14.38;;;4.80;;
16385;SDS011;8302;51.154;4.456;2023-07-24T04:57:15;19.70;;;5.65;;
16385;SDS011;8302;51.154;4.456;2023-07-24T04:59:43;19.65;;;5.43;;
16385;SDS011;8302;51.154;4.456;2023-07-24T05:02:10;18.40;;;6.18;;
16385;SDS011;8302;51.154;4.456;2023-07-24T05:04:38;18.48;;;6.15;;
16385;SDS011;8302;51.154;4.456;2023-07-24T05:07:06;19.98;;;6.25;;
16385;SDS011;8302;51.154;4.456;2023-07-24T05:09:33;18.85;;;6.60;;
16385;SDS011;8302;51.154;4.456;2023-07-24T05:12:03;19.65;;;6.70;;
16385;SDS011;8302;51.154;4.456;2023-07-24T05:14:30;22.48;;;8.05;;
16385;SDS011;8302;51.154;4.456;2023-07-24T05:16:58;30.73;;;8.95;;
16385;SDS011;8302;51.154;4.456;2023-07-24T05:19:26;23.10;;;8.43;;
16385;SDS011;8302;51.154;4.456;2023-07-24T05:21:53;26.50;;;10.02;;
16385;SDS011;8302;51.154;4.456;2023-07-24T05:24:21;29.55;;;10.63;;
16385;SDS011;8302;51.154;4.456;2023-07-24T05:26:49;27.73;;;9.30;;
16385;SDS011;8302;51.154;4.456;2023-07-24T05:29:18;27.10;;;10.32;;
16385;SDS011;8302;51.154;4.456;2023-07-24T05:31:45;29.45;;;10.68;;
16385;SDS011;8302;51.154;4.456;2023-07-24T05:34:13;34.85;;;11.98;;
16385;SDS011;8302;51.154;4.456;2023-07-24T05:36:41;38.88;;;11.82;;
16385;SDS011;8302;51.154;4.456;2023-07-24T05:39:09;31.70;;;12.10;;
16385;SDS011;8302;51.154;4.456;2023-07-24T05:41:36;34.55;;;12.45;;
16385;SDS011;8302;51.154;4.456;2023-07-24T05:44:06;40.95;;;12.32;;
16385;SDS011;8302;51.154;4.456;2023-07-24T05:46:35;32.97;;;13.40;;
16385;SDS011;8302;51.154;4.456;2023-07-24T05:49:03;34.97;;;12.20;;
16385;SDS011;8302;51.154;4.456;2023-07-24T05:51:30;32.58;;;11.60;;
16385;SDS011;8302;51.154;4.456;2023-07-24T05:53:58;29.27;;;11.20;;
16385;SDS011;8302;51.154;4.456;2023-07-24T05:56:26;33.33;;;10.75;;
16385;SDS011;8302;51.154;4.456;2023-07-24T05:58:54;29.40;;;10.45;;
16385;SDS011;8302;51.154;4.456;2023-07-24T06:01:22;25.02;;;10.35;;
16385;SDS011;8302;51.154;4.456;2023-07-24T06:03:51;25.60;;;10.05;;
16385;SDS011;8302;51.154;4.456;2023-07-24T06:06:19;25.77;;;10.52;;
16385;SDS011;8302;51.154;4.456;2023-07-24T06:08:46;30.70;;;10.02;;
16385;SDS011;8302;51.154;4.456;2023-07-24T06:11:14;26.23;;;8.80;;
16385;SDS011;8302;51.154;4.456;2023-07-24T06:13:42;23.05;;;8.40;;
16385;SDS011;8302;51.154;4.456;2023-07-24T06:16:10;23.75;;;8.73;;
16385;SDS011;8302;51.154;4.456;2023-07-24T06:18:40;24.20;;;8.65;;
16385;SDS011;8302;51.154;4.456;2023-07-24T06:21:10;25.40;;;9.05;;
16385;SDS011;8302;51.154;4.456;2023-07-24T06:23:38;17.17;;;8.07;;
16385;SDS011;8302;51.154;4.456;2023-07-24T06:26:06;22.38;;;7.80;;
16385;SDS011;8302;51.154;4.456;2023-07-24T06:28:33;22.92;;;8.38;;
16385;SDS011;8302;51.154;4.456;2023-07-24T06:31:01;20.08;;;7.60;;
16385;SDS011;8302;51.154;4.456;2023-07-24T06:33:29;16.23;;;6.97;;
16385;SDS011;8302;51.154;4.456;2023-07-24T06:35:56;15.02;;;5.95;;
16385;SDS011;8302;51.154;4.456;2023-07-24T06:38:25;17.95;;;7.40;;
16385;SDS011;8302;51.154;4.456;2023-07-24T06:40:53;16.58;;;6.82;;
16385;SDS011;8302;51.154;4.456;2023-07-24T06:43:21;15.48;;;5.85;;
16385;SDS011;8302;51.154;4.456;2023-07-24T06:45:49;17.85;;;6.97;;
16385;SDS011;8302;51.154;4.456;2023-07-24T06:48:16;13.35;;;5.57;;
16385;SDS011;8302;51.154;4.456;2023-07-24T06:50:44;9.00;;;5.68;;
16385;SDS011;8302;51.154;4.456;2023-07-24T06:53:12;7.22;;;3.55;;
16385;SDS011;8302;51.154;4.456;2023-07-24T06:55:42;5.07;;;2.38;;
16385;SDS011;8302;51.154;4.456;2023-07-24T06:58:09;4.18;;;2.50;;
16385;SDS011;8302;51.154;4.456;2023-07-24T07:00:37;4.55;;;1.92;;
16385;SDS011;8302;51.154;4.456;2023-07-24T07:03:05;5.35;;;2.28;;
16385;SDS011;8302;51.154;4.456;2023-07-24T07:05:33;9.85;;;3.15;;
16385;SDS011;8302;51.154;4.456;2023-07-24T07:08:01;9.13;;;2.83;;
16385;SDS011;8302;51.154;4.456;2023-07-24T07:10:29;4.68;;;2.13;;
16385;SDS011;8302;51.154;4.456;2023-07-24T07:12:59;9.35;;;3.05;;
16385;SDS011;8302;51.154;4.456;2023-07-24T07:15:26;5.80;;;2.40;;
16385;SDS011;8302;51.154;4.456;2023-07-24T07:17:54;7.40;;;2.58;;
16385;SDS011;8302;51.154;4.456;2023-07-24T07:20:22;4.60;;;1.42;;
16385;SDS011;8302;51.154;4.456;2023-07-24T07:22:50;6.28;;;2.15;;
16385;SDS011;8302;51.154;4.456;2023-07-24T07:25:18;4.57;;;2.70;;
16385;SDS011;8302;51.154;4.456;2023-07-24T07:27:46;2.67;;;1.17;;
16385;SDS011;8302;51.154;4.456;2023-07-24T07:30:15;3.85;;;1.90;;
16385;SDS011;8302;51.154;4.456;2023-07-24T07:32:42;2.88;;;1.83;;
16385;SDS011;8302;51.154;4.456;2023-07-24T07:35:10;5.95;;;1.63;;
16385;SDS011;8302;51.154;4.456;2023-07-24T07:37:38;2.20;;;1.50;;
16385;SDS011;8302;51.154;4.456;2023-07-24T07:40:06;1.85;;;1.38;;
16385;SDS011;8302;51.154;4.456;2023-07-24T07:42:34;5.82;;;1.05;;
16385;SDS011;8302;51.154;4.456;2023-07-24T07:45:05;7.90;;;2.00;;
16385;SDS011;8302;51.154;4.456;2023-07-24T07:47:34;5.07;;;1.90;;
16385;SDS011;8302;51.154;4.456;2023-07-24T07:50:02;1.70;;;0.93;;
16385;SDS011;8302;51.154;4.456;2023-07-24T07:52:29;1.35;;;1.00;;
16385;SDS011;8302;51.154;4.456;2023-07-24T07:54:57;3.40;;;2.22;;
16385;SDS011;8302;51.154;4.456;2023-07-24T07:57:26;6.90;;;2.35;;
16385;SDS011;8302;51.154;4.456;2023-07-24T07:59:53;1.55;;;0.80;;
16385;SDS011;8302;51.154;4.456;2023-07-24T08:02:21;1.83;;;1.48;;
16385;SDS011;8302;51.154;4.456;2023-07-24T08:04:50;2.50;;;1.40;;
16385;SDS011;8302;51.154;4.456;2023-07-24T08:07:18;3.65;;;1.92;;
16385;SDS011;8302;51.154;4.456;2023-07-24T08:09:45;4.38;;;1.42;;
16385;SDS011;8302;51.154;4.456;2023-07-24T08:12:13;2.17;;;0.70;;
16385;SDS011;8302;51.154;4.456;2023-07-24T08:14:41;3.38;;;1.75;;
16385;SDS011;8302;51.154;4.456;2023-07-24T08:17:09;4.03;;;1.48;;
16385;SDS011;8302;51.154;4.456;2023-07-24T08:19:36;3.17;;;1.65;;
16385;SDS011;8302;51.154;4.456;2023-07-24T08:22:05;2.00;;;1.27;;
16385;SDS011;8302;51.154;4.456;2023-07-24T08:24:33;2.90;;;1.77;;
16385;SDS011;8302;51.154;4.456;2023-07-24T08:27:01;3.83;;;1.73;;
16385;SDS011;8302;51.154;4.456;2023-07-24T08:29:29;1.73;;;1.20;;
16385;SDS011;8302;51.154;4.456;2023-07-24T08:31:56;4.95;;;1.42;;
16385;SDS011;8302;51.154;4.456;2023-07-24T08:34:24;3.60;;;1.80;;
16385;SDS011;8302;51.154;4.456;2023-07-24T08:36:52;2.72;;;1.65;;
16385;SDS011;8302;51.154;4.456;2023-07-24T08:39:21;2.42;;;0.93;;
16385;SDS011;8302;51.154;4.456;2023-07-24T08:41:49;1.27;;;0.95;;
16385;SDS011;8302;51.154;4.456;2023-07-24T08:44:16;2.95;;;1.13;;
16385;SDS011;8302;51.154;4.456;2023-07-24T08:46:45;4.90;;;1.42;;
16385;SDS011;8302;51.154;4.456;2023-07-24T08:49:14;1.13;;;0.60;;
16385;SDS011;8302;51.154;4.456;2023-07-24T08:51:41;1.42;;;1.05;;
16385;SDS011;8302;51.154;4.456;2023-07-24T08:54:09;2.28;;;0.80;;
16385;SDS011;8302;51.154;4.456;2023-07-24T08:56:39;1.00;;;0.57;;
16385;SDS011;8302;51.154;4.456;2023-07-24T08:59:08;1.80;;;1.05;;
16385;SDS011;8302;51.154;4.456;2023-07-24T09:01:35;0.68;;;0.68;;
16385;SDS011;8302;51.154;4.456;2023-07-24T09:04:03;1.30;;;1.20;;
16385;SDS011;8302;51.154;4.456;2023-07-24T09:06:31;3.67;;;1.60;;
16385;SDS011;8302;51.154;4.456;2023-07-24T09:08:59;0.82;;;0.80;;
16385;SDS011;8302;51.154;4.456;2023-07-24T09:11:27;1.70;;;1.02;;
16385;SDS011;8302;51.154;4.456;2023-07-24T09:13:56;1.80;;;1.13;;
16385;SDS011;8302;51.154;4.456;2023-07-24T09:16:25;3.60;;;1.40;;
16385;SDS011;8302;51.154;4.456;2023-07-24T09:18:53;2.00;;;1.05;;
16385;SDS011;8302;51.154;4.456;2023-07-24T09:21:36;1.92;;;1.00;;
16385;SDS011;8302;51.154;4.456;2023-07-24T09:24:13;3.75;;;0.82;;
16385;SDS011;8302;51.154;4.456;2023-07-24T09:26:49;1.92;;;0.98;;
16385;SDS011;8302;51.154;4.456;2023-07-24T09:29:18;2.92;;;1.42;;
16385;SDS011;8302;51.154;4.456;2023-07-24T09:31:46;2.85;;;1.17;;
16385;SDS011;8302;51.154;4.456;2023-07-24T09:34:15;1.27;;;0.73;;
16385;SDS011;8302;51.154;4.456;2023-07-24T09:36:43;1.40;;;0.77;;
16385;SDS011;8302;51.154;4.456;2023-07-24T09:39:11;2.45;;;0.85;;
16385;SDS011;8302;51.154;4.456;2023-07-24T09:41:39;2.40;;;1.17;;
16385;SDS011;8302;51.154;4.456;2023-07-24T09:44:07;0.95;;;0.70;;
16385;SDS011;8302;51.154;4.456;2023-07-24T09:46:36;1.65;;;0.95;;
16385;SDS011;8302;51.154;4.456;2023-07-24T09:49:13;3.60;;;0.85;;
16385;SDS011;8302;51.154;4.456;2023-07-24T09:51:41;1.25;;;1.00;;
16385;SDS011;8302;51.154;4.456;2023-07-24T09:54:13;0.30;;;0.28;;
16385;SDS011;8302;51.154;4.456;2023-07-24T09:56:42;1.75;;;0.60;;
16385;SDS011;8302;51.154;4.456;2023-07-24T09:59:23;2.13;;;1.02;;
16385;SDS011;8302;51.154;4.456;2023-07-24T10:01:52;1.02;;;0.75;;
16385;SDS011;8302;51.154;4.456;2023-07-24T10:04:20;2.38;;;0.85;;
16385;SDS011;8302;51.154;4.456;2023-07-24T10:06:48;0.75;;;0.52;;
16385;SDS011;8302;51.154;4.456;2023-07-24T10:09:15;3.08;;;1.13;;
16385;SDS011;8302;51.154;4.456;2023-07-24T10:11:45;1.52;;;1.10;;
16385;SDS011;8302;51.154;4.456;2023-07-24T10:14:13;0.77;;;0.63;;
16385;SDS011;8302;51.154;4.456;2023-07-24T10:16:40;0.50;;;0.50;;
16385;SDS011;8302;51.154;4.456;2023-07-24T10:19:14;0.85;;;0.70;;
16385;SDS011;8302;51.154;4.456;2023-07-24T10:21:44;1.73;;;1.00;;
16385;SDS011;8302;51.154;4.456;2023-07-24T10:24:12;1.27;;;0.80;;
16385;SDS011;8302;51.154;4.456;2023-07-24T10:26:54;1.73;;;0.80;;
16385;SDS011;8302;51.154;4.456;2023-07-24T10:29:23;1.52;;;0.90;;
16385;SDS011;8302;51.154;4.456;2023-07-24T10:31:53;1.65;;;1.10;;
16385;SDS011;8302;51.154;4.456;2023-07-24T10:34:23;1.45;;;0.80;;
16385;SDS011;8302;51.154;4.456;2023-07-24T10:37:01;0.65;;;0.47;;
16385;SDS011;8302;51.154;4.456;2023-07-24T10:39:36;1.65;;;0.88;;
16385;SDS011;8302;51.154;4.456;2023-07-24T10:42:05;1.58;;;1.00;;
16385;SDS011;8302;51.154;4.456;2023-07-24T10:44:32;0.77;;;0.70;;
16385;SDS011;8302;51.154;4.456;2023-07-24T10:47:01;1.00;;;0.75;;
16385;SDS011;8302;51.154;4.456;2023-07-24T10:49:30;0.63;;;0.63;;
16385;SDS011;8302;51.154;4.456;2023-07-24T10:51:58;0.50;;;0.50;;
16385;SDS011;8302;51.154;4.456;2023-07-24T10:54:26;0.93;;;0.70;;
16385;SDS011;8302;51.154;4.456;2023-07-24T10:57:00;1.10;;;0.75;;
16385;SDS011;8302;51.154;4.456;2023-07-24T10:59:37;1.35;;;0.80;;
16385;SDS011;8302;51.154;4.456;2023-07-24T11:02:05;4.38;;;1.05;;
16385;SDS011;8302;51.154;4.456;2023-07-24T11:04:34;1.85;;;0.88;;
16385;SDS011;8302;51.154;4.456;2023-07-24T11:07:01;0.32;;;0.30;;
16385;SDS011;8302;51.154;4.456;2023-07-24T11:09:35;1.25;;;0.77;;
16385;SDS011;8302;51.154;4.456;2023-07-24T11:12:10;0.63;;;0.60;;
16385;SDS011;8302;51.154;4.456;2023-07-24T11:14:50;1.50;;;0.75;;
16385;SDS011;8302;51.154;4.456;2023-07-24T11:17:20;1.85;;;0.65;;
16385;SDS011;8302;51.154;4.456;2023-07-24T11:19:49;1.40;;;1.05;;
16385;SDS011;8302;51.154;4.456;2023-07-24T11:22:21;1.38;;;0.50;;
16385;SDS011;8302;51.154;4.456;2023-07-24T11:24:49;1.45;;;1.17;;
16385;SDS011;8302;51.154;4.456;2023-07-24T11:27:16;1.50;;;1.10;;
16385;SDS011;8302;51.154;4.456;2023-07-24T11:29:47;2.25;;;0.90;;
16385;SDS011;8302;51.154;4.456;2023-07-24T11:32:17;1.33;;;0.73;;
16385;SDS011;8302;51.154;4.456;2023-07-24T11:34:44;1.25;;;0.90;;
16385;SDS011;8302;51.154;4.456;2023-07-24T11:37:14;0.93;;;0.85;;
16385;SDS011;8302;51.154;4.456;2023-07-24T11:39:42;0.95;;;0.90;;
16385;SDS011;8302;51.154;4.456;2023-07-24T11:42:09;1.42;;;0.77;;
16385;SDS011;8302;51.154;4.456;2023-07-24T11:44:37;0.77;;;0.70;;
16385;SDS011;8302;51.154;4.456;2023-07-24T11:47:05;1.40;;;0.70;;
16385;SDS011;8302;51.154;4.456;2023-07-24T11:49:33;1.17;;;0.77;;
16385;SDS011;8302;51.154;4.456;2023-07-24T11:52:01;1.08;;;0.85;;
16385;SDS011;8302;51.154;4.456;2023-07-24T11:54:33;1.00;;;0.80;;
16385;SDS011;8302;51.154;4.456;2023-07-24T11:57:01;2.42;;;1.35;;
16385;SDS011;8302;51.154;4.456;2023-07-24T11:59:36;0.82;;;0.65;;
16385;SDS011;8302;51.154;4.456;2023-07-24T12:02:04;2.30;;;1.00;;
16385;SDS011;8302;51.154;4.456;2023-07-24T12:04:32;1.48;;;1.13;;
16385;SDS011;8302;51.154;4.456;2023-07-24T12:07:00;1.17;;;1.00;;
16385;SDS011;8302;51.154;4.456;2023-07-24T12:09:29;1.63;;;1.27;;
16385;SDS011;8302;51.154;4.456;2023-07-24T12:11:59;1.60;;;1.05;;
16385;SDS011;8302;51.154;4.456;2023-07-24T12:14:26;2.33;;;1.48;;
16385;SDS011;8302;51.154;4.456;2023-07-24T12:17:00;1.35;;;0.80;;
16385;SDS011;8302;51.154;4.456;2023-07-24T12:19:27;1.02;;;0.80;;
16385;SDS011;8302;51.154;4.456;2023-07-24T12:21:55;1.15;;;0.60;;
16385;SDS011;8302;51.154;4.456;2023-07-24T12:24:23;2.58;;;1.02;;
16385;SDS011;8302;51.154;4.456;2023-07-24T12:26:50;2.17;;;1.02;;
16385;SDS011;8302;51.154;4.456;2023-07-24T12:29:19;1.58;;;0.85;;
16385;SDS011;8302;51.154;4.456;2023-07-24T12:31:47;1.13;;;0.80;;
16385;SDS011;8302;51.154;4.456;2023-07-24T12:34:15;3.00;;;1.35;;
16385;SDS011;8302;51.154;4.456;2023-07-24T12:36:42;1.73;;;1.05;;
16385;SDS011;8302;51.154;4.456;2023-07-24T12:39:10;1.67;;;0.80;;
16385;SDS011;8302;51.154;4.456;2023-07-24T12:41:38;1.92;;;0.73;;
16385;SDS011;8302;51.154;4.456;2023-07-24T12:44:06;3.95;;;1.20;;
16385;SDS011;8302;51.154;4.456;2023-07-24T12:46:35;1.73;;;1.20;;
16385;SDS011;8302;51.154;4.456;2023-07-24T12:49:03;1.13;;;0.90;;
16385;SDS011;8302;51.154;4.456;2023-07-24T12:51:30;1.75;;;1.17;;
16385;SDS011;8302;51.154;4.456;2023-07-24T12:53:58;0.90;;;0.80;;
16385;SDS011;8302;51.154;4.456;2023-07-24T12:56:36;2.33;;;0.80;;
16385;SDS011;8302;51.154;4.456;2023-07-24T12:59:04;1.60;;;1.10;;
16385;SDS011;8302;51.154;4.456;2023-07-24T13:01:32;0.75;;;0.57;;
16385;SDS011;8302;51.154;4.456;2023-07-24T13:04:01;0.63;;;0.63;;
16385;SDS011;8302;51.154;4.456;2023-07-24T13:06:29;2.20;;;1.27;;
16385;SDS011;8302;51.154;4.456;2023-07-24T13:08:57;1.65;;;1.30;;
16385;SDS011;8302;51.154;4.456;2023-07-24T13:11:25;1.58;;;1.17;;
16385;SDS011;8302;51.154;4.456;2023-07-24T13:13:55;1.20;;;0.93;;
16385;SDS011;8302;51.154;4.456;2023-07-24T13:16:23;0.60;;;0.60;;
16385;SDS011;8302;51.154;4.456;2023-07-24T13:18:51;0.77;;;0.70;;
16385;SDS011;8302;51.154;4.456;2023-07-24T13:21:20;1.48;;;1.05;;
16385;SDS011;8302;51.154;4.456;2023-07-24T13:23:47;2.38;;;1.38;;
16385;SDS011;8302;51.154;4.456;2023-07-24T13:26:15;2.13;;;1.05;;
16385;SDS011;8302;51.154;4.456;2023-07-24T13:28:43;2.58;;;1.27;;
16385;SDS011;8302;51.154;4.456;2023-07-24T13:31:11;1.30;;;1.10;;
16385;SDS011;8302;51.154;4.456;2023-07-24T13:33:39;1.58;;;1.00;;
16385;SDS011;8302;51.154;4.456;2023-07-24T13:36:06;0.32;;;0.32;;
16385;SDS011;8302;51.154;4.456;2023-07-24T13:38:35;1.75;;;1.20;;
16385;SDS011;8302;51.154;4.456;2023-07-24T13:41:03;1.63;;;1.02;;
16385;SDS011;8302;51.154;4.456;2023-07-24T13:43:31;0.30;;;0.30;;
16385;SDS011;8302;51.154;4.456;2023-07-24T13:45:59;0.60;;;0.60;;
16385;SDS011;8302;51.154;4.456;2023-07-24T13:48:29;1.10;;;0.95;;
16385;SDS011;8302;51.154;4.456;2023-07-24T13:50:57;2.05;;;1.05;;
16385;SDS011;8302;51.154;4.456;2023-07-24T13:53:24;0.95;;;0.80;;
16385;SDS011;8302;51.154;4.456;2023-07-24T13:55:53;1.30;;;0.75;;
16385;SDS011;8302;51.154;4.456;2023-07-24T13:58:21;0.70;;;0.63;;
16385;SDS011;8302;51.154;4.456;2023-07-24T14:00:49;0.90;;;0.82;;
16385;SDS011;8302;51.154;4.456;2023-07-24T14:03:16;0.75;;;0.60;;
16385;SDS011;8302;51.154;4.456;2023-07-24T14:05:44;0.77;;;0.65;;
16385;SDS011;8302;51.154;4.456;2023-07-24T14:08:12;1.20;;;1.10;;
16385;SDS011;8302;51.154;4.456;2023-07-24T14:10:40;3.00;;;0.63;;
16385;SDS011;8302;51.154;4.456;2023-07-24T14:13:09;1.35;;;0.68;;
16385;SDS011;8302;51.154;4.456;2023-07-24T14:15:37;1.60;;;1.10;;
16385;SDS011;8302;51.154;4.456;2023-07-24T14:18:04;1.48;;;0.65;;
16385;SDS011;8302;51.154;4.456;2023-07-24T14:20:32;1.38;;;0.88;;
16385;SDS011;8302;51.154;4.456;2023-07-24T14:23:00;0.70;;;0.68;;
16385;SDS011;8302;51.154;4.456;2023-07-24T14:25:27;0.65;;;0.65;;
16385;SDS011;8302;51.154;4.456;2023-07-24T14:27:55;1.60;;;0.98;;
16385;SDS011;8302;51.154;4.456;2023-07-24T14:30:24;0.82;;;0.75;;
16385;SDS011;8302;51.154;4.456;2023-07-24T14:32:52;1.25;;;0.70;;
16385;SDS011;8302;51.154;4.456;2023-07-24T14:35:20;0.98;;;0.90;;
16385;SDS011;8302;51.154;4.456;2023-07-24T14:37:47;0.60;;;0.60;;
16385;SDS011;8302;51.154;4.456;2023-07-24T14:40:15;1.35;;;1.00;;
16385;SDS011;8302;51.154;4.456;2023-07-24T14:42:43;1.05;;;1.00;;
16385;SDS011;8302;51.154;4.456;2023-07-24T14:45:10;1.27;;;0.93;;
16385;SDS011;8302;51.154;4.456;2023-07-24T14:47:39;1.42;;;0.75;;
16385;SDS011;8302;51.154;4.456;2023-07-24T14:50:07;4.85;;;0.70;;
16385;SDS011;8302;51.154;4.456;2023-07-24T14:52:35;0.98;;;0.80;;
16385;SDS011;8302;51.154;4.456;2023-07-24T14:55:04;1.67;;;1.10;;
16385;SDS011;8302;51.154;4.456;2023-07-24T14:57:32;0.90;;;0.73;;
16385;SDS011;8302;51.154;4.456;2023-07-24T15:00:00;2.92;;;1.50;;
16385;SDS011;8302;51.154;4.456;2023-07-24T15:02:27;1.08;;;0.95;;
16385;SDS011;8302;51.154;4.456;2023-07-24T15:04:56;0.70;;;0.70;;